Weather at Niš Clinical Center Heliport

Public forecast

Using degrees Celsius for public forecast. Weather courtesy of forecast.io.

Closest aviation weather report (METAR) to Niš Clinical Center Heliport

Closest report is Niš Constantine the Great Airport, 3.1 nm (5.7 km) WNW.

2024/05/28 17:30 (retrieved 10 minutes ago)

LYNI 281730Z 26003KT 200V290 9999 FEW033TCU SCT040 22/10 Q1013 NOSIG

Closest aviation forecast (TAF) to Niš Clinical Center Heliport

Closest forecast is Niš Constantine the Great Airport, 3.1 nm (5.7 km) WNW.

2024/05/28 12:21 (retrieved 5 hours ago)

TAF LYNI 281100Z 2812/2912 07004KT CAVOK TX24/2813Z TN10/2903Z TEMPO 2812/2817 32015G25KT 4000 TSRA SCT033CB SCT040 TEMPO 2902/2905 3000 BR BECMG 2907/2909 32015KT